Time;durP1;ratioP1;P1;durP2;ratioP2;P2;SDS_P1;SDS_P2;PMS_P1;PMS_P2;Temp;Humidity;BMP_temperature;BMP_pressure;BME280_temperature;BME280_humidity;BME280_pressure;Samples;Min_cycle;Max_cycle;Signal;HPM_P1;HPM_P2
2023/03/08 00:00:13;;;;;;;11.73;6.83;;;;;;;;;;5053866;28;20189;-74
2023/03/08 00:02:39;;;;;;;10.43;7.23;;;;;;;;;;5048841;28;20312;-74
2023/03/08 00:05:06;;;;;;;9.80;7.00;;;;;;;;;;5050026;28;20238;-74
2023/03/08 00:07:32;;;;;;;11.73;7.53;;;;;;;;;;5045259;28;20200;-75
2023/03/08 00:09:58;;;;;;;10.17;7.23;;;;;;;;;;5050058;28;20272;-74
2023/03/08 00:12:25;;;;;;;10.00;6.73;;;;;;;;;;5049241;28;20224;-73
2023/03/08 00:14:52;;;;;;;9.37;6.60;;;;;;;;;;5047016;28;20243;-74
2023/03/08 00:17:19;;;;;;;12.13;7.70;;;;;;;;;;5051837;28;20213;-74
2023/03/08 00:19:45;;;;;;;12.70;8.27;;;;;;;;;;5048259;28;20545;-74
2023/03/08 00:22:11;;;;;;;10.50;7.63;;;;;;;;;;5048806;28;20193;-73
2023/03/08 00:24:38;;;;;;;9.90;7.07;;;;;;;;;;5047919;28;20575;-74
2023/03/08 00:27:04;;;;;;;12.23;7.70;;;;;;;;;;5059924;28;20197;-74
2023/03/08 00:29:32;;;;;;;13.70;7.43;;;;;;;;;;5041942;28;20224;-75
2023/03/08 00:31:58;;;;;;;9.90;7.20;;;;;;;;;;5049937;28;20205;-75
2023/03/08 00:34:24;;;;;;;11.97;7.30;;;;;;;;;;5050034;28;20584;-74
2023/03/08 00:36:50;;;;;;;10.70;6.90;;;;;;;;;;5047081;28;20192;-74
2023/03/08 00:39:17;;;;;;;10.77;7.23;;;;;;;;;;5054454;28;20682;-74
2023/03/08 00:41:43;;;;;;;10.47;7.40;;;;;;;;;;5048293;28;20273;-74
2023/03/08 00:44:09;;;;;;;12.73;6.90;;;;;;;;;;5046039;28;20265;-74
2023/03/08 00:46:35;;;;;;;10.67;7.73;;;;;;;;;;5049907;28;20392;-74
2023/03/08 00:49:03;;;;;;;10.93;7.40;;;;;;;;;;5045350;28;20187;-74
2023/03/08 00:51:30;;;;;;;8.87;6.97;;;;;;;;;;5044203;28;20220;-74
2023/03/08 00:53:56;;;;;;;12.07;8.00;;;;;;;;;;5043711;28;20201;-74
2023/03/08 00:56:22;;;;;;;11.07;7.33;;;;;;;;;;5042315;28;20182;-74
2023/03/08 00:58:48;;;;;;;10.10;7.50;;;;;;;;;;5041936;28;20229;-74
2023/03/08 01:01:16;;;;;;;11.00;7.63;;;;;;;;;;5044745;28;20890;-74
2023/03/08 01:03:42;;;;;;;11.73;7.10;;;;;;;;;;5043302;28;20209;-75
2023/03/08 01:06:12;;;;;;;12.33;7.83;;;;;;;;;;5045855;28;20324;-74
2023/03/08 01:08:41;;;;;;;10.60;7.60;;;;;;;;;;5044310;28;20705;-74
2023/03/08 01:11:07;;;;;;;9.87;7.50;;;;;;;;;;5047186;28;20189;-74
2023/03/08 01:13:34;;;;;;;10.10;7.60;;;;;;;;;;5046533;28;20198;-74
2023/03/08 01:16:01;;;;;;;9.73;7.53;;;;;;;;;;5045784;28;20189;-74
2023/03/08 01:18:27;;;;;;;11.43;8.30;;;;;;;;;;5046430;28;20197;-75
2023/03/08 01:20:55;;;;;;;11.07;8.00;;;;;;;;;;5050011;28;20181;-74
2023/03/08 01:23:21;;;;;;;12.10;7.77;;;;;;;;;;5043684;28;20201;-73
2023/03/08 01:25:47;;;;;;;11.43;7.50;;;;;;;;;;5044143;28;20725;-74
2023/03/08 01:28:13;;;;;;;10.57;7.67;;;;;;;;;;5048486;28;20182;-74
2023/03/08 01:30:40;;;;;;;10.53;7.03;;;;;;;;;;5031717;28;20188;-73
2023/03/08 01:33:06;;;;;;;11.60;7.80;;;;;;;;;;5045531;28;20842;-74
2023/03/08 01:35:32;;;;;;;12.03;7.80;;;;;;;;;;5048100;28;20182;-74
2023/03/08 01:37:58;;;;;;;11.90;7.90;;;;;;;;;;5061171;28;20194;-74
2023/03/08 01:40:24;;;;;;;12.13;8.40;;;;;;;;;;5043378;28;20178;-73
2023/03/08 01:42:50;;;;;;;11.07;7.67;;;;;;;;;;5042275;28;20231;-73
2023/03/08 01:45:35;;;;;;;11.10;8.20;;;;;;;;;;5045307;28;20274;-75
2023/03/08 01:48:02;;;;;;;11.77;7.90;;;;;;;;;;5020031;28;20244;-74
2023/03/08 01:50:48;;;;;;;9.50;7.43;;;;;;;;;;5047822;28;20201;-74
2023/03/08 01:53:14;;;;;;;13.63;7.97;;;;;;;;;;5061428;28;20251;-74
2023/03/08 01:55:41;;;;;;;9.83;7.17;;;;;;;;;;5049242;28;20245;-74
2023/03/08 01:58:07;;;;;;;12.03;8.33;;;;;;;;;;5064099;28;20201;-74
2023/03/08 02:00:33;;;;;;;13.43;8.17;;;;;;;;;;5048507;28;20598;-75
2023/03/08 02:03:01;;;;;;;12.43;7.90;;;;;;;;;;5047014;28;20300;-74
2023/03/08 02:05:29;;;;;;;12.27;8.50;;;;;;;;;;5031865;28;20678;-74
2023/03/08 02:08:02;;;;;;;13.30;8.60;;;;;;;;;;5048991;28;20193;-74
2023/03/08 02:10:32;;;;;;;10.43;7.47;;;;;;;;;;5047903;28;20190;-74
2023/03/08 02:12:58;;;;;;;12.57;8.40;;;;;;;;;;5046647;28;20827;-74
2023/03/08 02:15:24;;;;;;;12.13;8.10;;;;;;;;;;5047525;28;20657;-74
2023/03/08 02:17:54;;;;;;;12.23;8.33;;;;;;;;;;5031179;28;20217;-74
2023/03/08 02:20:27;;;;;;;10.90;8.20;;;;;;;;;;5030180;28;20269;-74
2023/03/08 02:22:53;;;;;;;13.87;8.70;;;;;;;;;;5047230;28;20201;-74
2023/03/08 02:25:24;;;;;;;11.30;8.17;;;;;;;;;;5047575;28;20216;-74
2023/03/08 02:27:54;;;;;;;11.23;7.77;;;;;;;;;;5052580;28;20181;-74
2023/03/08 02:30:23;;;;;;;12.27;8.57;;;;;;;;;;5047962;28;20579;-74
2023/03/08 02:32:50;;;;;;;13.30;8.20;;;;;;;;;;5046512;28;20216;-74
2023/03/08 02:35:19;;;;;;;14.10;8.17;;;;;;;;;;5047414;28;20197;-74
2023/03/08 02:37:45;;;;;;;11.77;8.00;;;;;;;;;;5014531;28;20206;-73
2023/03/08 02:40:11;;;;;;;13.00;7.80;;;;;;;;;;5044563;28;20186;-75
2023/03/08 02:42:38;;;;;;;12.17;8.00;;;;;;;;;;5044881;28;20201;-75
2023/03/08 02:45:04;;;;;;;16.43;9.50;;;;;;;;;;5047901;28;20186;-75
2023/03/08 02:47:31;;;;;;;13.17;8.30;;;;;;;;;;5047485;28;20186;-75
2023/03/08 02:49:57;;;;;;;12.10;8.30;;;;;;;;;;5048262;28;20653;-74
2023/03/08 02:52:24;;;;;;;10.53;7.93;;;;;;;;;;5043381;28;20213;-74
2023/03/08 02:54:50;;;;;;;11.77;7.87;;;;;;;;;;5043922;28;20197;-74
2023/03/08 02:57:16;;;;;;;11.37;7.83;;;;;;;;;;5047235;28;20229;-75
2023/03/08 02:59:44;;;;;;;11.03;7.70;;;;;;;;;;5049413;28;20189;-75
2023/03/08 03:02:10;;;;;;;12.20;8.17;;;;;;;;;;5046432;28;20542;-75
2023/03/08 03:04:37;;;;;;;10.97;7.77;;;;;;;;;;5047929;28;20205;-75
2023/03/08 03:07:03;;;;;;;11.70;8.07;;;;;;;;;;5051104;28;20174;-75
2023/03/08 03:09:33;;;;;;;11.37;7.87;;;;;;;;;;5048104;28;20933;-74
2023/03/08 03:11:59;;;;;;;11.13;7.20;;;;;;;;;;5045305;28;20198;-75
2023/03/08 03:14:29;;;;;;;12.57;7.53;;;;;;;;;;5048709;28;20182;-75
2023/03/08 03:16:56;;;;;;;13.17;8.07;;;;;;;;;;5062783;28;20182;-74
2023/03/08 03:19:22;;;;;;;12.53;8.30;;;;;;;;;;5050839;28;20655;-74
2023/03/08 03:21:49;;;;;;;12.17;8.00;;;;;;;;;;5048893;28;20182;-75
2023/03/08 03:24:15;;;;;;;12.57;8.10;;;;;;;;;;5047059;28;20485;-75
2023/03/08 03:26:49;;;;;;;11.50;8.07;;;;;;;;;;5065287;28;20190;-74
2023/03/08 03:29:15;;;;;;;12.83;7.90;;;;;;;;;;5048731;28;20228;-74
2023/03/08 03:31:43;;;;;;;11.10;8.20;;;;;;;;;;5049702;28;20269;-75
2023/03/08 03:34:10;;;;;;;14.40;9.23;;;;;;;;;;5043530;28;20194;-75
2023/03/08 03:36:36;;;;;;;15.23;8.57;;;;;;;;;;5050151;28;20209;-74
2023/03/08 03:39:03;;;;;;;12.97;8.97;;;;;;;;;;5046569;28;20250;-74
2023/03/08 03:41:32;;;;;;;13.80;8.33;;;;;;;;;;5050531;28;20182;-75
2023/03/08 03:44:03;;;;;;;13.50;8.77;;;;;;;;;;5051099;28;20243;-75
2023/03/08 03:46:30;;;;;;;13.27;8.90;;;;;;;;;;5032632;28;20179;-77
2023/03/08 03:48:58;;;;;;;12.23;8.77;;;;;;;;;;5049689;28;20204;-75
2023/03/08 03:51:27;;;;;;;14.80;8.50;;;;;;;;;;5034418;28;20194;-75
2023/03/08 03:54:04;;;;;;;15.50;9.50;;;;;;;;;;5033469;28;20296;-75
2023/03/08 03:56:31;;;;;;;14.90;9.03;;;;;;;;;;5031145;28;20189;-75
2023/03/08 03:58:59;;;;;;;14.10;9.37;;;;;;;;;;5049932;28;20284;-76
2023/03/08 04:01:28;;;;;;;12.53;8.67;;;;;;;;;;5050675;28;20174;-76
2023/03/08 04:03:59;;;;;;;15.60;9.40;;;;;;;;;;5034498;28;20216;-76
2023/03/08 04:06:30;;;;;;;14.27;9.30;;;;;;;;;;5050738;28;20186;-76
2023/03/08 04:08:58;;;;;;;14.18;10.25;;;;;;;;;;5057319;28;20512;-76
2023/03/08 04:11:27;;;;;;;14.33;9.50;;;;;;;;;;5036596;28;20189;-76
2023/03/08 04:13:54;;;;;;;13.20;9.77;;;;;;;;;;5064500;28;20426;-76
2023/03/08 04:16:25;;;;;;;13.73;9.13;;;;;;;;;;5048880;28;20186;-75
2023/03/08 04:18:53;;;;;;;13.80;8.97;;;;;;;;;;5047879;28;20252;-76
2023/03/08 04:21:19;;;;;;;12.73;8.77;;;;;;;;;;5061422;28;20625;-75
2023/03/08 04:23:45;;;;;;;14.80;9.40;;;;;;;;;;5047394;28;20292;-76
2023/03/08 04:26:12;;;;;;;17.57;10.80;;;;;;;;;;5032157;28;20557;-76
2023/03/08 04:28:39;;;;;;;13.33;9.10;;;;;;;;;;5030867;28;20244;-75
2023/03/08 04:31:12;;;;;;;13.27;8.93;;;;;;;;;;5045898;28;20271;-76
2023/03/08 04:33:44;;;;;;;13.63;9.37;;;;;;;;;;5046512;28;20209;-75
2023/03/08 04:36:12;;;;;;;16.70;10.67;;;;;;;;;;5029447;28;20233;-76
2023/03/08 04:38:38;;;;;;;14.10;9.33;;;;;;;;;;5046919;28;20260;-76
2023/03/08 04:41:10;;;;;;;14.50;9.00;;;;;;;;;;5036789;28;20186;-75
2023/03/08 04:43:51;;;;;;;13.77;8.63;;;;;;;;;;5040666;28;20206;-75
2023/03/08 04:46:22;;;;;;;16.03;9.53;;;;;;;;;;5022213;28;20187;-76
2023/03/08 04:48:51;;;;;;;17.13;9.60;;;;;;;;;;5047411;28;20193;-76
2023/03/08 04:51:18;;;;;;;13.23;9.30;;;;;;;;;;5012024;28;20198;-75
2023/03/08 04:53:46;;;;;;;15.33;9.67;;;;;;;;;;5045866;28;21010;-75
2023/03/08 04:56:13;;;;;;;14.20;9.50;;;;;;;;;;5059997;28;20238;-75
2023/03/08 04:58:45;;;;;;;13.47;9.13;;;;;;;;;;5047542;28;20812;-76
2023/03/08 05:01:15;;;;;;;16.87;9.97;;;;;;;;;;5044462;28;20177;-75
2023/03/08 05:03:42;;;;;;;15.17;8.83;;;;;;;;;;5046083;28;20313;-75
2023/03/08 05:06:09;;;;;;;16.87;10.60;;;;;;;;;;5026695;28;20276;-76
2023/03/08 05:08:35;;;;;;;15.63;9.60;;;;;;;;;;5025453;28;20657;-76
2023/03/08 05:11:03;;;;;;;18.77;11.63;;;;;;;;;;5025752;28;20199;-75
2023/03/08 05:13:33;;;;;;;17.80;10.73;;;;;;;;;;5039791;28;20203;-75
2023/03/08 05:16:00;;;;;;;16.47;10.50;;;;;;;;;;5063474;28;20435;-75
2023/03/08 05:18:27;;;;;;;15.00;9.60;;;;;;;;;;5046509;28;20273;-76
2023/03/08 05:20:58;;;;;;;17.03;10.27;;;;;;;;;;5046960;28;20247;-76
2023/03/08 05:23:25;;;;;;;16.23;10.00;;;;;;;;;;5029870;28;20618;-76
2023/03/08 05:25:53;;;;;;;14.77;10.57;;;;;;;;;;5028331;28;20212;-75
2023/03/08 05:28:19;;;;;;;18.83;10.87;;;;;;;;;;5046094;28;20205;-76
2023/03/08 05:30:46;;;;;;;15.10;9.97;;;;;;;;;;5044275;28;20197;-75
2023/03/08 05:33:13;;;;;;;19.23;11.83;;;;;;;;;;5044518;28;20216;-75
2023/03/08 05:35:39;;;;;;;18.30;10.90;;;;;;;;;;5048426;28;20182;-75
2023/03/08 05:38:07;;;;;;;15.97;10.20;;;;;;;;;;5025460;28;20301;-76
2023/03/08 05:40:33;;;;;;;17.03;10.60;;;;;;;;;;5041668;28;20205;-79
2023/03/08 05:43:00;;;;;;;17.07;10.57;;;;;;;;;;5031535;28;20284;-75
2023/03/08 05:45:26;;;;;;;16.53;10.90;;;;;;;;;;5045628;28;20194;-77
2023/03/08 05:47:53;;;;;;;17.40;11.10;;;;;;;;;;5048258;28;20201;-78
2023/03/08 05:50:19;;;;;;;17.88;12.02;;;;;;;;;;5046780;28;20447;-75
2023/03/08 05:52:49;;;;;;;14.73;10.43;;;;;;;;;;5050112;28;20601;-76
2023/03/08 05:55:20;;;;;;;16.57;10.47;;;;;;;;;;5044950;28;20189;-77
2023/03/08 05:57:47;;;;;;;19.43;11.67;;;;;;;;;;5048729;28;20209;-80
2023/03/08 06:00:14;;;;;;;16.00;10.47;;;;;;;;;;5033956;28;20194;-77
2023/03/08 06:02:45;;;;;;;19.37;11.40;;;;;;;;;;5044463;28;20270;-75
2023/03/08 06:05:13;;;;;;;26.53;13.20;;;;;;;;;;5043295;28;20189;-77
2023/03/08 06:07:42;;;;;;;16.33;10.33;;;;;;;;;;5042063;28;20740;-75
2023/03/08 06:10:10;;;;;;;20.07;11.27;;;;;;;;;;5048297;28;20181;-76
2023/03/08 06:12:37;;;;;;;16.03;11.03;;;;;;;;;;5045825;28;20201;-76
2023/03/08 06:15:06;;;;;;;28.67;13.63;;;;;;;;;;5047598;28;20185;-76
2023/03/08 06:17:35;;;;;;;19.23;11.37;;;;;;;;;;5048496;28;20208;-74
2023/03/08 06:20:01;;;;;;;19.33;11.03;;;;;;;;;;5045274;28;20185;-76
2023/03/08 06:22:30;;;;;;;17.70;10.43;;;;;;;;;;5040681;28;20205;-74
2023/03/08 06:24:56;;;;;;;17.50;10.90;;;;;;;;;;5042230;28;20190;-76
2023/03/08 06:27:29;;;;;;;15.70;10.67;;;;;;;;;;5032852;28;20735;-75
2023/03/08 06:29:59;;;;;;;13.17;9.23;;;;;;;;;;5038972;28;20193;-77
2023/03/08 06:32:26;;;;;;;17.47;9.77;;;;;;;;;;5048781;28;20205;-77
2023/03/08 06:34:52;;;;;;;14.53;9.43;;;;;;;;;;5031145;28;20225;-78
2023/03/08 06:37:19;;;;;;;17.43;10.60;;;;;;;;;;5061464;28;20251;-77
2023/03/08 06:39:45;;;;;;;16.37;10.20;;;;;;;;;;5046989;28;20753;-76
2023/03/08 06:42:11;;;;;;;16.17;10.40;;;;;;;;;;5032478;28;20615;-77
2023/03/08 06:44:38;;;;;;;15.57;10.30;;;;;;;;;;5052447;28;20186;-74
2023/03/08 06:47:04;;;;;;;15.60;10.10;;;;;;;;;;5049275;28;20178;-77
2023/03/08 06:49:30;;;;;;;14.23;10.10;;;;;;;;;;5035255;28;20182;-78
2023/03/08 06:51:57;;;;;;;13.90;9.30;;;;;;;;;;5055521;28;20212;-78
2023/03/08 06:54:23;;;;;;;16.37;9.57;;;;;;;;;;5052118;28;20185;-79
2023/03/08 06:56:49;;;;;;;14.70;9.47;;;;;;;;;;5052030;28;20190;-73
2023/03/08 06:59:16;;;;;;;15.97;10.03;;;;;;;;;;5045511;28;20209;-77
2023/03/08 07:01:42;;;;;;;12.67;9.53;;;;;;;;;;5037714;28;20205;-77
2023/03/08 07:04:08;;;;;;;14.33;9.30;;;;;;;;;;5053030;28;20181;-79
2023/03/08 07:06:34;;;;;;;17.60;10.30;;;;;;;;;;5037802;28;20186;-78
2023/03/08 07:09:00;;;;;;;13.30;8.67;;;;;;;;;;5055578;28;20182;-78
2023/03/08 07:11:28;;;;;;;15.40;9.60;;;;;;;;;;5051628;28;20736;-78
2023/03/08 07:13:54;;;;;;;14.93;9.50;;;;;;;;;;5050053;28;20328;-78
2023/03/08 07:16:20;;;;;;;14.17;8.93;;;;;;;;;;5018993;28;20193;-78
2023/03/08 07:18:46;;;;;;;16.63;9.00;;;;;;;;;;5053610;28;20752;-78
2023/03/08 07:21:12;;;;;;;13.53;9.33;;;;;;;;;;5073316;28;20289;-78
2023/03/08 07:23:39;;;;;;;12.97;8.83;;;;;;;;;;5074225;28;20387;-77
2023/03/08 07:26:05;;;;;;;13.43;9.10;;;;;;;;;;5077726;28;20180;-77
2023/03/08 07:28:31;;;;;;;13.37;9.57;;;;;;;;;;5047226;28;20219;-78
2023/03/08 07:30:58;;;;;;;13.73;9.87;;;;;;;;;;5054881;28;20189;-77
2023/03/08 07:33:24;;;;;;;13.70;9.27;;;;;;;;;;5054595;28;20689;-77
2023/03/08 07:35:50;;;;;;;15.53;10.37;;;;;;;;;;5054811;28;20260;-78
2023/03/08 07:38:16;;;;;;;16.20;10.00;;;;;;;;;;5054480;28;20282;-78
2023/03/08 07:40:43;;;;;;;17.13;10.23;;;;;;;;;;5054378;28;20196;-78
2023/03/08 07:43:09;;;;;;;16.70;10.63;;;;;;;;;;5052803;28;20193;-78
2023/03/08 07:45:59;;;;;;;16.03;9.97;;;;;;;;;;5053922;28;20185;-78
2023/03/08 07:48:25;;;;;;;16.70;10.23;;;;;;;;;;5069236;28;20181;-78
2023/03/08 07:50:51;;;;;;;16.90;10.90;;;;;;;;;;5052968;28;20783;-78
2023/03/08 07:53:18;;;;;;;19.43;11.90;;;;;;;;;;5035758;28;20236;-78
2023/03/08 07:55:44;;;;;;;14.40;10.40;;;;;;;;;;5052382;28;20586;-78
2023/03/08 07:58:10;;;;;;;17.57;12.07;;;;;;;;;;5053606;28;20186;-78
2023/03/08 08:00:36;;;;;;;19.27;12.17;;;;;;;;;;5052554;28;20273;-77
2023/03/08 08:03:02;;;;;;;19.50;12.13;;;;;;;;;;5035514;28;20271;-78
2023/03/08 08:05:29;;;;;;;19.27;12.70;;;;;;;;;;5053450;28;20162;-78
2023/03/08 08:07:55;;;;;;;21.20;13.47;;;;;;;;;;5053061;28;20185;-78
2023/03/08 08:10:21;;;;;;;20.17;12.57;;;;;;;;;;5052308;28;20190;-78
2023/03/08 08:12:47;;;;;;;19.80;12.50;;;;;;;;;;5051637;28;20201;-77
2023/03/08 08:15:15;;;;;;;19.70;12.77;;;;;;;;;;5052954;28;20178;-78
2023/03/08 08:17:41;;;;;;;21.07;13.20;;;;;;;;;;5052538;28;20287;-78
2023/03/08 08:20:07;;;;;;;21.40;13.80;;;;;;;;;;5053055;28;20184;-78
2023/03/08 08:22:35;;;;;;;21.30;13.27;;;;;;;;;;5052291;28;20190;-77
2023/03/08 08:25:01;;;;;;;20.13;12.60;;;;;;;;;;5052861;28;20257;-78
2023/03/08 08:27:27;;;;;;;19.73;13.63;;;;;;;;;;5034644;28;20186;-77
2023/03/08 08:29:53;;;;;;;20.53;12.70;;;;;;;;;;5051216;28;20201;-78
2023/03/08 08:32:19;;;;;;;19.80;13.03;;;;;;;;;;5034256;28;20193;-76
2023/03/08 08:34:45;;;;;;;25.67;13.50;;;;;;;;;;5052582;28;20166;-77
2023/03/08 08:37:11;;;;;;;21.73;14.03;;;;;;;;;;5052611;28;20646;-78
2023/03/08 08:39:38;;;;;;;18.97;12.93;;;;;;;;;;5051214;28;20288;-78
2023/03/08 08:42:04;;;;;;;20.57;14.17;;;;;;;;;;5050671;28;20197;-78
2023/03/08 08:44:30;;;;;;;22.27;13.90;;;;;;;;;;5051654;28;20170;-78
2023/03/08 08:46:56;;;;;;;19.33;14.23;;;;;;;;;;5052272;28;20202;-78
2023/03/08 08:49:23;;;;;;;24.60;14.70;;;;;;;;;;5052685;28;20170;-78
2023/03/08 08:51:49;;;;;;;18.43;13.50;;;;;;;;;;5051851;28;20186;-78
2023/03/08 08:54:15;;;;;;;19.93;13.33;;;;;;;;;;5050327;28;20177;-78
2023/03/08 08:56:42;;;;;;;20.33;13.93;;;;;;;;;;5052284;28;20217;-78
2023/03/08 08:59:10;;;;;;;20.60;14.10;;;;;;;;;;5052490;28;20220;-78
2023/03/08 09:01:42;;;;;;;21.23;14.00;;;;;;;;;;5052018;28;20214;-78
2023/03/08 09:04:12;;;;;;;17.00;12.47;;;;;;;;;;5050496;28;20170;-77
2023/03/08 09:06:39;;;;;;;15.80;11.93;;;;;;;;;;5051580;28;20558;-78
2023/03/08 09:09:05;;;;;;;14.97;11.07;;;;;;;;;;5052028;28;20653;-77
2023/03/08 09:11:32;;;;;;;13.90;10.60;;;;;;;;;;5050120;28;20661;-78
2023/03/08 09:13:58;;;;;;;12.77;10.03;;;;;;;;;;5051122;28;20742;-78
2023/03/08 09:16:25;;;;;;;13.60;10.13;;;;;;;;;;5061820;28;20170;-78
2023/03/08 09:18:51;;;;;;;12.87;9.17;;;;;;;;;;5070552;28;20251;-78
2023/03/08 09:21:17;;;;;;;12.40;9.33;;;;;;;;;;5070399;28;20181;-77
2023/03/08 09:23:44;;;;;;;11.20;9.00;;;;;;;;;;5070057;28;20200;-78
2023/03/08 09:26:10;;;;;;;11.70;8.70;;;;;;;;;;5072140;28;20177;-78
2023/03/08 09:28:37;;;;;;;11.07;8.20;;;;;;;;;;5053908;28;20192;-78
2023/03/08 09:31:10;;;;;;;11.50;8.50;;;;;;;;;;5071448;28;20173;-78
2023/03/08 09:33:38;;;;;;;9.33;8.00;;;;;;;;;;5061935;28;20206;-78
2023/03/08 09:36:04;;;;;;;9.83;7.90;;;;;;;;;;5050925;28;20201;-78
2023/03/08 09:38:30;;;;;;;9.27;7.00;;;;;;;;;;5033462;28;20205;-78
2023/03/08 09:40:56;;;;;;;9.23;7.33;;;;;;;;;;5069246;28;20161;-78
2023/03/08 09:43:29;;;;;;;9.00;6.90;;;;;;;;;;5068737;28;20207;-78
2023/03/08 09:45:56;;;;;;;9.27;6.87;;;;;;;;;;5071005;28;20162;-77
2023/03/08 09:48:26;;;;;;;8.27;6.67;;;;;;;;;;5069776;28;20201;-78
2023/03/08 09:50:54;;;;;;;8.73;7.00;;;;;;;;;;5070676;28;20668;-78
2023/03/08 09:53:28;;;;;;;8.63;7.30;;;;;;;;;;5068720;28;20199;-78
2023/03/08 09:56:02;;;;;;;7.40;6.37;;;;;;;;;;5070455;28;20173;-78
2023/03/08 09:58:41;;;;;;;9.27;6.90;;;;;;;;;;5052309;28;20264;-78
2023/03/08 10:01:26;;;;;;;7.77;6.33;;;;;;;;;;5068668;28;20196;-78
2023/03/08 10:04:07;;;;;;;9.23;6.53;;;;;;;;;;5068757;28;20276;-78
2023/03/08 10:06:36;;;;;;;8.13;6.97;;;;;;;;;;5068563;28;20176;-78
2023/03/08 10:09:11;;;;;;;11.00;6.93;;;;;;;;;;5070480;28;20183;-78
2023/03/08 10:11:53;;;;;;;13.47;6.70;;;;;;;;;;5068883;28;20640;-78
2023/03/08 10:14:27;;;;;;;8.03;6.40;;;;;;;;;;5068686;28;20235;-78
2023/03/08 10:16:56;;;;;;;9.27;7.10;;;;;;;;;;5067713;28;20188;-78
2023/03/08 10:19:22;;;;;;;7.20;5.80;;;;;;;;;;5070069;28;20201;-78
2023/03/08 10:21:50;;;;;;;7.20;5.20;;;;;;;;;;5069828;28;20734;-78
2023/03/08 10:24:23;;;;;;;6.67;5.27;;;;;;;;;;5068340;28;20172;-78
2023/03/08 10:26:49;;;;;;;6.30;5.07;;;;;;;;;;5069074;28;20169;-78
2023/03/08 10:29:15;;;;;;;7.60;5.97;;;;;;;;;;5069226;28;20227;-78
2023/03/08 10:31:43;;;;;;;6.70;5.40;;;;;;;;;;5068918;28;20938;-78
2023/03/08 10:34:09;;;;;;;9.03;4.97;;;;;;;;;;5068660;28;20592;-78
2023/03/08 10:36:46;;;;;;;6.87;5.47;;;;;;;;;;5070279;28;20188;-78
2023/03/08 10:39:13;;;;;;;6.37;4.90;;;;;;;;;;5050993;28;20288;-78
2023/03/08 10:41:44;;;;;;;9.30;5.93;;;;;;;;;;5049456;28;20912;-78
2023/03/08 10:44:29;;;;;;;8.63;6.47;;;;;;;;;;5045080;28;20183;-78
2023/03/08 10:46:56;;;;;;;9.63;6.53;;;;;;;;;;5037774;28;20192;-78
2023/03/08 10:49:24;;;;;;;8.30;6.50;;;;;;;;;;5049405;28;20332;-78
2023/03/08 10:51:54;;;;;;;8.53;7.07;;;;;;;;;;5047874;28;20246;-78
2023/03/08 10:54:20;;;;;;;9.67;6.90;;;;;;;;;;5049478;28;20297;-78
2023/03/08 10:56:57;;;;;;;9.23;6.80;;;;;;;;;;5050009;28;20182;-78
2023/03/08 10:59:31;;;;;;;10.00;7.63;;;;;;;;;;5049715;28;20658;-78
2023/03/08 11:02:00;;;;;;;9.10;7.10;;;;;;;;;;5048385;28;20545;-78
2023/03/08 11:04:27;;;;;;;10.83;7.60;;;;;;;;;;5049121;28;20999;-78
2023/03/08 11:06:53;;;;;;;15.33;8.30;;;;;;;;;;5065959;28;20173;-78
2023/03/08 11:09:26;;;;;;;10.60;8.33;;;;;;;;;;5035064;28;20240;-78
2023/03/08 11:11:53;;;;;;;10.60;9.10;;;;;;;;;;5041353;28;20193;-78
2023/03/08 11:14:19;;;;;;;11.97;8.60;;;;;;;;;;5048298;28;20562;-78
2023/03/08 11:16:45;;;;;;;11.23;9.00;;;;;;;;;;5047716;28;20186;-78
2023/03/08 11:19:30;;;;;;;12.00;8.87;;;;;;;;;;5052332;28;20216;-78
2023/03/08 11:22:16;;;;;;;10.77;8.40;;;;;;;;;;5060373;28;20187;-78
2023/03/08 11:24:45;;;;;;;10.40;8.67;;;;;;;;;;5071783;28;20653;-78
2023/03/08 11:27:41;;;;;;;12.10;9.10;;;;;;;;;;5068585;28;20178;-78
2023/03/08 11:30:13;;;;;;;12.07;9.93;;;;;;;;;;5052534;28;20239;-78
2023/03/08 11:32:39;;;;;;;12.00;9.33;;;;;;;;;;5052970;28;20229;-78
2023/03/08 11:35:13;;;;;;;12.00;9.80;;;;;;;;;;5053483;28;20166;-78
2023/03/08 11:37:51;;;;;;;13.43;10.17;;;;;;;;;;5053235;28;20201;-78
2023/03/08 11:40:17;;;;;;;40.17;23.57;;;;;;;;;;5055126;28;20166;-77
2023/03/08 11:42:52;;;;;;;18.40;13.27;;;;;;;;;;5052249;28;20202;-78
2023/03/08 11:45:21;;;;;;;14.80;10.93;;;;;;;;;;5054060;28;20330;-78
2023/03/08 11:48:11;;;;;;;16.77;11.30;;;;;;;;;;5060285;28;20253;-77
2023/03/08 11:50:41;;;;;;;14.97;10.80;;;;;;;;;;5068251;28;20761;-78
2023/03/08 11:53:33;;;;;;;15.60;10.50;;;;;;;;;;5055710;28;20205;-78
2023/03/08 11:56:18;;;;;;;12.90;9.60;;;;;;;;;;5016369;28;20210;-78
2023/03/08 11:58:47;;;;;;;13.40;10.50;;;;;;;;;;5054265;28;20197;-77
2023/03/08 12:01:23;;;;;;;13.63;10.63;;;;;;;;;;5052026;28;20178;-78
2023/03/08 12:03:52;;;;;;;15.43;10.47;;;;;;;;;;5051934;28;20197;-78
2023/03/08 12:06:30;;;;;;;14.33;9.97;;;;;;;;;;5053080;28;20178;-78
2023/03/08 12:09:00;;;;;;;13.67;10.17;;;;;;;;;;5052259;28;20196;-78
2023/03/08 12:11:31;;;;;;;14.83;10.53;;;;;;;;;;5052614;28;20186;-77
2023/03/08 12:14:03;;;;;;;15.97;10.57;;;;;;;;;;5046853;28;20236;-80
2023/03/08 12:16:37;;;;;;;17.60;11.80;;;;;;;;;;5034960;28;20185;-78
2023/03/08 12:19:22;;;;;;;13.97;10.90;;;;;;;;;;5052792;28;20193;-80
2023/03/08 12:21:48;;;;;;;14.80;11.63;;;;;;;;;;5006373;28;20190;-79
2023/03/08 12:24:33;;;;;;;14.63;10.87;;;;;;;;;;5033244;28;20202;-78
2023/03/08 12:27:03;;;;;;;18.23;12.03;;;;;;;;;;5032983;28;20786;-78
2023/03/08 12:29:34;;;;;;;15.17;11.57;;;;;;;;;;5033556;28;20167;-77
2023/03/08 12:32:00;;;;;;;15.47;10.53;;;;;;;;;;5046694;28;20274;-79
2023/03/08 12:34:36;;;;;;;15.30;10.63;;;;;;;;;;5051483;28;20190;-78
2023/03/08 12:37:02;;;;;;;12.67;10.27;;;;;;;;;;5052194;28;20178;-78
2023/03/08 12:39:33;;;;;;;15.10;11.03;;;;;;;;;;5052064;28;20210;-79
2023/03/08 12:42:13;;;;;;;14.70;10.57;;;;;;;;;;5050178;28;20391;-79
2023/03/08 12:44:40;;;;;;;17.77;11.07;;;;;;;;;;5030545;28;20209;-78
2023/03/08 12:47:12;;;;;;;13.60;10.27;;;;;;;;;;5031357;28;20648;-78
2023/03/08 12:49:40;;;;;;;12.67;9.80;;;;;;;;;;5031965;28;20211;-78
2023/03/08 12:52:22;;;;;;;13.83;9.00;;;;;;;;;;5032909;28;20217;-79
2023/03/08 12:54:58;;;;;;;12.67;9.07;;;;;;;;;;5052671;28;20577;-79
2023/03/08 12:57:27;;;;;;;12.43;9.23;;;;;;;;;;5056269;28;20189;-79
2023/03/08 12:59:58;;;;;;;13.03;9.57;;;;;;;;;;5051637;28;20186;-78
2023/03/08 13:02:24;;;;;;;12.60;9.23;;;;;;;;;;5050407;28;20261;-80
2023/03/08 13:05:01;;;;;;;11.77;8.53;;;;;;;;;;5054529;28;20181;-80
2023/03/08 13:07:39;;;;;;;11.93;8.90;;;;;;;;;;5039420;28;20220;-80
2023/03/08 13:10:08;;;;;;;13.23;8.93;;;;;;;;;;5056052;28;20194;-78
2023/03/08 13:12:41;;;;;;;11.97;8.37;;;;;;;;;;5051476;28;20664;-77
2023/03/08 13:15:10;;;;;;;11.23;8.57;;;;;;;;;;5018586;28;20649;-78
2023/03/08 13:17:38;;;;;;;11.37;8.40;;;;;;;;;;5050244;28;20213;-78
2023/03/08 13:20:17;;;;;;;11.30;8.37;;;;;;;;;;5034959;28;20269;-79
2023/03/08 13:22:53;;;;;;;12.00;8.27;;;;;;;;;;5049938;28;20275;-78
2023/03/08 13:25:34;;;;;;;10.50;8.37;;;;;;;;;;5052709;28;20774;-80
2023/03/08 13:28:05;;;;;;;10.70;7.77;;;;;;;;;;5052754;28;20169;-80
2023/03/08 13:30:34;;;;;;;16.37;7.90;;;;;;;;;;5054063;28;20192;-80
2023/03/08 13:33:00;;;;;;;12.83;8.57;;;;;;;;;;5034297;28;20216;-77
2023/03/08 13:35:27;;;;;;;10.43;8.43;;;;;;;;;;5052538;28;20194;-79
2023/03/08 13:37:58;;;;;;;11.87;8.50;;;;;;;;;;5051740;28;20206;-80
2023/03/08 13:40:25;;;;;;;13.53;8.53;;;;;;;;;;5049143;28;20201;-79
2023/03/08 13:42:56;;;;;;;14.63;8.90;;;;;;;;;;5047692;28;20955;-78
2023/03/08 13:45:22;;;;;;;12.23;8.80;;;;;;;;;;5049013;28;20169;-78
2023/03/08 13:47:49;;;;;;;13.97;9.23;;;;;;;;;;5048862;28;20196;-78
2023/03/08 13:50:33;;;;;;;11.47;8.90;;;;;;;;;;5046264;28;20186;-79
2023/03/08 13:53:06;;;;;;;11.53;8.70;;;;;;;;;;5049387;28;20205;-78
2023/03/08 13:55:38;;;;;;;12.47;8.83;;;;;;;;;;5044870;28;20205;-78
2023/03/08 13:58:05;;;;;;;12.20;8.77;;;;;;;;;;5049217;28;20221;-78
2023/03/08 14:00:32;;;;;;;12.47;9.27;;;;;;;;;;5033890;28;20182;-78
2023/03/08 14:03:00;;;;;;;10.63;8.70;;;;;;;;;;5048539;28;20198;-79
2023/03/08 14:05:27;;;;;;;12.20;9.00;;;;;;;;;;5048432;28;20178;-79
2023/03/08 14:08:02;;;;;;;14.73;8.67;;;;;;;;;;5032422;28;20573;-78
2023/03/08 14:10:31;;;;;;;14.07;9.47;;;;;;;;;;5012548;28;20166;-78
2023/03/08 14:12:58;;;;;;;13.23;8.57;;;;;;;;;;5037422;28;20217;-78
2023/03/08 14:15:24;;;;;;;12.47;8.97;;;;;;;;;;5043170;28;20320;-79
2023/03/08 14:17:51;;;;;;;10.83;8.30;;;;;;;;;;5048274;28;20248;-78
2023/03/08 14:20:17;;;;;;;12.93;8.03;;;;;;;;;;5044286;28;20189;-78
2023/03/08 14:22:45;;;;;;;10.90;8.07;;;;;;;;;;5048254;28;20223;-78
2023/03/08 14:25:26;;;;;;;12.27;8.33;;;;;;;;;;5049686;28;20185;-80
2023/03/08 14:27:52;;;;;;;11.47;7.70;;;;;;;;;;5048961;28;20672;-79
2023/03/08 14:30:20;;;;;;;12.50;8.60;;;;;;;;;;5038134;28;20597;-78
2023/03/08 14:33:18;;;;;;;15.37;9.70;;;;;;;;;;5047603;28;20205;-79
2023/03/08 14:35:51;;;;;;;10.90;7.80;;;;;;;;;;5047958;28;20186;-79
2023/03/08 14:38:23;;;;;;;12.47;7.40;;;;;;;;;;5047328;28;20237;-79